sensor_id;sensor_type;location;lat;lon;timestamp;pressure;altitude;pressure_sealevel;temperature;humidity
32237;BME280;18726;44.732;10.550;2023-12-22T00:02:42;99597.59;;;7.38;100.00
32237;BME280;18726;44.732;10.550;2023-12-22T00:05:46;99568.53;;;7.16;100.00
32237;BME280;18726;44.732;10.550;2023-12-22T00:08:49;99549.91;;;6.79;100.00
32237;BME280;18726;44.732;10.550;2023-12-22T00:11:53;99538.00;;;7.31;100.00
32237;BME280;18726;44.732;10.550;2023-12-22T00:14:57;99541.22;;;7.56;96.21
32237;BME280;18726;44.732;10.550;2023-12-22T00:18:00;99540.41;;;7.71;96.47
32237;BME280;18726;44.732;10.550;2023-12-22T00:21:04;99538.56;;;7.94;94.33
32237;BME280;18726;44.732;10.550;2023-12-22T00:24:08;99540.25;;;7.64;94.22
32237;BME280;18726;44.732;10.550;2023-12-22T00:27:11;99550.94;;;7.95;91.46
32237;BME280;18726;44.732;10.550;2023-12-22T00:30:15;99528.59;;;7.98;90.25
32237;BME280;18726;44.732;10.550;2023-12-22T00:33:19;99513.53;;;7.78;89.63
32237;BME280;18726;44.732;10.550;2023-12-22T00:36:23;99504.41;;;7.48;91.66
32237;BME280;18726;44.732;10.550;2023-12-22T00:39:28;99495.69;;;7.19;98.37
32237;BME280;18726;44.732;10.550;2023-12-22T00:42:31;99493.94;;;7.65;96.39
32237;BME280;18726;44.732;10.550;2023-12-22T00:45:35;99495.06;;;8.03;92.92
32237;BME280;18726;44.732;10.550;2023-12-22T00:48:38;99502.25;;;8.34;89.56
32237;BME280;18726;44.732;10.550;2023-12-22T00:51:42;99516.75;;;8.26;89.99
32237;BME280;18726;44.732;10.550;2023-12-22T00:54:46;99524.41;;;8.43;88.33
32237;BME280;18726;44.732;10.550;2023-12-22T00:57:50;99532.72;;;8.76;90.50
32237;BME280;18726;44.732;10.550;2023-12-22T01:00:54;99527.44;;;8.19;85.93
32237;BME280;18726;44.732;10.550;2023-12-22T01:03:57;99528.50;;;8.79;100.00
32237;BME280;18726;44.732;10.550;2023-12-22T01:07:01;99524.84;;;9.43;100.00
32237;BME280;18726;44.732;10.550;2023-12-22T01:10:05;99535.22;;;9.68;100.00
32237;BME280;18726;44.732;10.550;2023-12-22T01:13:09;99554.41;;;9.56;97.87
32237;BME280;18726;44.732;10.550;2023-12-22T01:16:12;99552.41;;;9.79;100.00
32237;BME280;18726;44.732;10.550;2023-12-22T01:19:16;99552.31;;;9.72;100.00
32237;BME280;18726;44.732;10.550;2023-12-22T01:22:20;99527.13;;;9.41;95.86
32237;BME280;18726;44.732;10.550;2023-12-22T01:25:26;99540.31;;;9.43;100.00
32237;BME280;18726;44.732;10.550;2023-12-22T01:28:29;99538.88;;;9.00;100.00
32237;BME280;18726;44.732;10.550;2023-12-22T01:31:33;99529.09;;;8.69;97.99
32237;BME280;18726;44.732;10.550;2023-12-22T01:34:37;99521.59;;;8.82;100.00
32237;BME280;18726;44.732;10.550;2023-12-22T01:37:40;99518.56;;;8.41;96.95
32237;BME280;18726;44.732;10.550;2023-12-22T01:40:44;99523.75;;;8.72;100.00
32237;BME280;18726;44.732;10.550;2023-12-22T01:43:47;99520.34;;;9.02;100.00
32237;BME280;18726;44.732;10.550;2023-12-22T01:46:51;99521.72;;;8.89;97.25
32237;BME280;18726;44.732;10.550;2023-12-22T01:49:55;99529.84;;;8.89;97.91
32237;BME280;18726;44.732;10.550;2023-12-22T01:52:59;99513.28;;;8.94;97.30
32237;BME280;18726;44.732;10.550;2023-12-22T01:56:03;99511.19;;;9.10;100.00
32237;BME280;18726;44.732;10.550;2023-12-22T01:59:07;99501.47;;;9.35;100.00
32237;BME280;18726;44.732;10.550;2023-12-22T02:02:11;99480.31;;;9.14;85.29
32237;BME280;18726;44.732;10.550;2023-12-22T02:05:15;99495.75;;;8.61;87.26
32237;BME280;18726;44.732;10.550;2023-12-22T02:08:20;99489.19;;;7.59;89.48
32237;BME280;18726;44.732;10.550;2023-12-22T02:11:26;99511.16;;;6.56;94.49
32237;BME280;18726;44.732;10.550;2023-12-22T02:14:30;99514.47;;;6.49;100.00
32237;BME280;18726;44.732;10.550;2023-12-22T02:17:51;99502.66;;;5.82;100.00
32237;BME280;18726;44.732;10.550;2023-12-22T02:20:58;99501.75;;;5.78;100.00
32237;BME280;18726;44.732;10.550;2023-12-22T02:24:02;99519.41;;;5.48;100.00
32237;BME280;18726;44.732;10.550;2023-12-22T02:30:39;99506.56;;;5.85;100.00
32237;BME280;18726;44.732;10.550;2023-12-22T02:33:46;99495.75;;;6.25;100.00
32237;BME280;18726;44.732;10.550;2023-12-22T02:36:53;99496.19;;;6.58;100.00
32237;BME280;18726;44.732;10.550;2023-12-22T02:39:58;99491.47;;;6.87;100.00
32237;BME280;18726;44.732;10.550;2023-12-22T02:43:04;99495.75;;;6.88;100.00
32237;BME280;18726;44.732;10.550;2023-12-22T02:46:15;99498.28;;;6.49;100.00
32237;BME280;18726;44.732;10.550;2023-12-22T02:49:19;99494.16;;;6.24;100.00
32237;BME280;18726;44.732;10.550;2023-12-22T02:52:23;99498.00;;;6.23;100.00
32237;BME280;18726;44.732;10.550;2023-12-22T02:55:26;99492.84;;;6.18;100.00
32237;BME280;18726;44.732;10.550;2023-12-22T02:58:31;99495.56;;;6.18;100.00
32237;BME280;18726;44.732;10.550;2023-12-22T03:01:35;99492.25;;;6.24;100.00
32237;BME280;18726;44.732;10.550;2023-12-22T03:04:39;99482.16;;;6.21;100.00
32237;BME280;18726;44.732;10.550;2023-12-22T03:07:43;99485.41;;;6.27;100.00
32237;BME280;18726;44.732;10.550;2023-12-22T03:10:47;99472.41;;;6.80;100.00
32237;BME280;18726;44.732;10.550;2023-12-22T03:13:51;99488.75;;;7.37;97.89
32237;BME280;18726;44.732;10.550;2023-12-22T03:16:54;99480.22;;;7.74;95.07
32237;BME280;18726;44.732;10.550;2023-12-22T03:19:58;99477.28;;;7.83;94.40
32237;BME280;18726;44.732;10.550;2023-12-22T03:23:02;99489.41;;;8.11;90.58
32237;BME280;18726;44.732;10.550;2023-12-22T03:26:06;99503.88;;;8.61;87.98
32237;BME280;18726;44.732;10.550;2023-12-22T03:29:10;99509.00;;;9.19;83.20
32237;BME280;18726;44.732;10.550;2023-12-22T03:32:13;99507.16;;;10.20;77.08
32237;BME280;18726;44.732;10.550;2023-12-22T03:35:17;99507.13;;;11.05;73.88
32237;BME280;18726;44.732;10.550;2023-12-22T03:38:20;99498.91;;;11.67;68.22
32237;BME280;18726;44.732;10.550;2023-12-22T03:41:24;99502.59;;;12.21;64.40
32237;BME280;18726;44.732;10.550;2023-12-22T03:44:28;99496.03;;;12.36;62.38
32237;BME280;18726;44.732;10.550;2023-12-22T03:47:32;99493.31;;;12.71;60.78
32237;BME280;18726;44.732;10.550;2023-12-22T03:50:36;99482.41;;;13.00;59.05
32237;BME280;18726;44.732;10.550;2023-12-22T03:53:40;99488.25;;;13.23;58.11
32237;BME280;18726;44.732;10.550;2023-12-22T03:56:44;99478.88;;;13.13;58.29
32237;BME280;18726;44.732;10.550;2023-12-22T03:59:47;99496.81;;;13.25;57.75
32237;BME280;18726;44.732;10.550;2023-12-22T04:02:51;99499.16;;;13.23;57.25
32237;BME280;18726;44.732;10.550;2023-12-22T04:05:55;99493.56;;;13.66;55.95
32237;BME280;18726;44.732;10.550;2023-12-22T04:08:59;99485.06;;;13.46;55.34
32237;BME280;18726;44.732;10.550;2023-12-22T04:12:03;99484.31;;;13.31;55.77
32237;BME280;18726;44.732;10.550;2023-12-22T04:15:07;99477.28;;;13.44;54.64
32237;BME280;18726;44.732;10.550;2023-12-22T04:18:11;99477.97;;;13.59;54.24
32237;BME280;18726;44.732;10.550;2023-12-22T04:21:15;99484.84;;;13.92;53.11
32237;BME280;18726;44.732;10.550;2023-12-22T04:24:18;99502.03;;;13.93;53.23
32237;BME280;18726;44.732;10.550;2023-12-22T04:27:22;99506.75;;;13.81;52.72
32237;BME280;18726;44.732;10.550;2023-12-22T04:30:26;99516.03;;;13.98;51.81
32237;BME280;18726;44.732;10.550;2023-12-22T04:33:31;99516.81;;;13.95;51.60
32237;BME280;18726;44.732;10.550;2023-12-22T04:36:35;99512.91;;;14.03;51.20
32237;BME280;18726;44.732;10.550;2023-12-22T04:39:39;99522.56;;;14.15;49.76
32237;BME280;18726;44.732;10.550;2023-12-22T04:42:43;99530.00;;;14.14;49.00
32237;BME280;18726;44.732;10.550;2023-12-22T04:45:47;99526.69;;;14.48;48.64
32237;BME280;18726;44.732;10.550;2023-12-22T04:48:51;99537.59;;;14.55;47.62
32237;BME280;18726;44.732;10.550;2023-12-22T04:51:55;99543.19;;;14.89;46.62
32237;BME280;18726;44.732;10.550;2023-12-22T04:54:58;99529.75;;;15.05;45.54
32237;BME280;18726;44.732;10.550;2023-12-22T04:58:03;99542.63;;;15.08;45.54
32237;BME280;18726;44.732;10.550;2023-12-22T05:01:07;99564.13;;;15.10;45.34
32237;BME280;18726;44.732;10.550;2023-12-22T05:04:11;99568.47;;;15.04;45.43
32237;BME280;18726;44.732;10.550;2023-12-22T05:07:15;99576.41;;;14.88;45.13
32237;BME280;18726;44.732;10.550;2023-12-22T05:10:19;99572.84;;;14.98;44.88
32237;BME280;18726;44.732;10.550;2023-12-22T05:13:23;99575.00;;;14.69;46.09
32237;BME280;18726;44.732;10.550;2023-12-22T05:16:27;99588.06;;;14.99;44.42
32237;BME280;18726;44.732;10.550;2023-12-22T05:19:34;99587.13;;;15.16;44.04
32237;BME280;18726;44.732;10.550;2023-12-22T05:22:38;99596.31;;;14.92;44.08
32237;BME280;18726;44.732;10.550;2023-12-22T05:25:41;99603.13;;;15.17;43.21
32237;BME280;18726;44.732;10.550;2023-12-22T05:28:45;99617.63;;;15.11;43.02
32237;BME280;18726;44.732;10.550;2023-12-22T05:31:49;99621.03;;;15.29;42.85
32237;BME280;18726;44.732;10.550;2023-12-22T05:34:53;99615.09;;;15.34;42.25
32237;BME280;18726;44.732;10.550;2023-12-22T05:37:56;99630.81;;;15.27;42.16
32237;BME280;18726;44.732;10.550;2023-12-22T05:41:00;99638.50;;;15.42;42.05
32237;BME280;18726;44.732;10.550;2023-12-22T05:44:04;99631.84;;;15.43;41.77
32237;BME280;18726;44.732;10.550;2023-12-22T05:47:11;99627.88;;;15.51;41.39
32237;BME280;18726;44.732;10.550;2023-12-22T05:50:17;99636.81;;;15.56;40.97
32237;BME280;18726;44.732;10.550;2023-12-22T05:53:20;99630.97;;;15.53;40.88
32237;BME280;18726;44.732;10.550;2023-12-22T05:56:24;99651.41;;;15.38;40.62
32237;BME280;18726;44.732;10.550;2023-12-22T05:59:28;99649.72;;;15.55;40.80
32237;BME280;18726;44.732;10.550;2023-12-22T06:02:34;99640.75;;;15.58;40.92
32237;BME280;18726;44.732;10.550;2023-12-22T06:05:37;99640.22;;;15.26;41.11
32237;BME280;18726;44.732;10.550;2023-12-22T06:08:42;99637.91;;;15.17;40.95
32237;BME280;18726;44.732;10.550;2023-12-22T06:11:45;99642.69;;;15.02;40.66
32237;BME280;18726;44.732;10.550;2023-12-22T06:14:49;99641.88;;;15.09;40.92
32237;BME280;18726;44.732;10.550;2023-12-22T06:17:53;99637.97;;;15.10;40.77
32237;BME280;18726;44.732;10.550;2023-12-22T06:20:56;99638.28;;;15.23;40.70
32237;BME280;18726;44.732;10.550;2023-12-22T06:24:00;99630.69;;;15.41;40.81
32237;BME280;18726;44.732;10.550;2023-12-22T06:27:04;99626.84;;;15.31;40.62
32237;BME280;18726;44.732;10.550;2023-12-22T06:30:10;99637.06;;;15.27;40.44
32237;BME280;18726;44.732;10.550;2023-12-22T06:33:14;99647.25;;;15.23;41.37
32237;BME280;18726;44.732;10.550;2023-12-22T06:36:22;99648.84;;;15.20;40.37
32237;BME280;18726;44.732;10.550;2023-12-22T06:39:26;99652.78;;;15.16;41.38
32237;BME280;18726;44.732;10.550;2023-12-22T06:42:30;99655.03;;;15.28;41.45
32237;BME280;18726;44.732;10.550;2023-12-22T06:45:34;99660.47;;;15.32;41.19
32237;BME280;18726;44.732;10.550;2023-12-22T06:48:38;99644.38;;;14.85;40.66
32237;BME280;18726;44.732;10.550;2023-12-22T06:51:41;99636.50;;;14.98;39.88
32237;BME280;18726;44.732;10.550;2023-12-22T06:54:44;99646.13;;;15.17;40.06
32237;BME280;18726;44.732;10.550;2023-12-22T06:57:48;99659.53;;;15.52;40.36
32237;BME280;18726;44.732;10.550;2023-12-22T07:00:52;99664.84;;;15.74;39.81
32237;BME280;18726;44.732;10.550;2023-12-22T07:03:55;99678.84;;;15.83;39.74
32237;BME280;18726;44.732;10.550;2023-12-22T07:06:59;99672.69;;;15.68;40.19
32237;BME280;18726;44.732;10.550;2023-12-22T07:10:04;99691.25;;;15.91;39.55
32237;BME280;18726;44.732;10.550;2023-12-22T07:13:08;99695.56;;;16.64;37.33
32237;BME280;18726;44.732;10.550;2023-12-22T07:16:11;99710.63;;;18.06;35.71
32237;BME280;18726;44.732;10.550;2023-12-22T07:19:15;99724.41;;;19.21;34.55
32237;BME280;18726;44.732;10.550;2023-12-22T07:22:19;99722.47;;;19.87;33.23
32237;BME280;18726;44.732;10.550;2023-12-22T07:25:22;99728.44;;;20.72;32.28
32237;BME280;18726;44.732;10.550;2023-12-22T07:28:27;99733.22;;;21.73;31.20
32237;BME280;18726;44.732;10.550;2023-12-22T07:31:30;99735.41;;;22.26;32.45
32237;BME280;18726;44.732;10.550;2023-12-22T07:34:34;99739.84;;;22.79;31.07
32237;BME280;18726;44.732;10.550;2023-12-22T07:37:38;99754.28;;;23.95;29.40
32237;BME280;18726;44.732;10.550;2023-12-22T07:40:42;99755.69;;;24.63;28.33
32237;BME280;18726;44.732;10.550;2023-12-22T07:43:45;99744.84;;;24.83;27.89
32237;BME280;18726;44.732;10.550;2023-12-22T07:46:58;99736.13;;;25.18;26.22
32237;BME280;18726;44.732;10.550;2023-12-22T07:50:04;99752.50;;;25.82;26.05
32237;BME280;18726;44.732;10.550;2023-12-22T07:53:12;99754.63;;;26.11;25.51
32237;BME280;18726;44.732;10.550;2023-12-22T07:56:16;99747.56;;;26.63;28.40
32237;BME280;18726;44.732;10.550;2023-12-22T07:59:19;99761.31;;;27.26;26.01
32237;BME280;18726;44.732;10.550;2023-12-22T08:02:23;99769.41;;;27.09;25.14
32237;BME280;18726;44.732;10.550;2023-12-22T08:05:27;99774.72;;;28.12;24.28
32237;BME280;18726;44.732;10.550;2023-12-22T08:08:30;99784.53;;;27.87;23.92
32237;BME280;18726;44.732;10.550;2023-12-22T08:11:33;99787.66;;;29.02;23.76
32237;BME280;18726;44.732;10.550;2023-12-22T08:14:37;99797.56;;;28.77;23.67
32237;BME280;18726;44.732;10.550;2023-12-22T08:17:47;99792.91;;;28.94;23.86
32237;BME280;18726;44.732;10.550;2023-12-22T08:20:51;99812.97;;;29.44;23.05
32237;BME280;18726;44.732;10.550;2023-12-22T08:23:55;99808.91;;;29.88;23.34
32237;BME280;18726;44.732;10.550;2023-12-22T08:26:58;99809.59;;;31.35;22.18
32237;BME280;18726;44.732;10.550;2023-12-22T08:30:02;99817.28;;;31.18;22.32
32237;BME280;18726;44.732;10.550;2023-12-22T08:33:06;99811.66;;;31.29;21.94
32237;BME280;18726;44.732;10.550;2023-12-22T08:36:10;99821.94;;;30.50;21.17
32237;BME280;18726;44.732;10.550;2023-12-22T08:39:14;99820.72;;;30.57;20.75
32237;BME280;18726;44.732;10.550;2023-12-22T08:42:18;99819.91;;;30.51;20.56
32237;BME280;18726;44.732;10.550;2023-12-22T08:45:22;99818.75;;;30.97;21.18
32237;BME280;18726;44.732;10.550;2023-12-22T08:48:25;99815.44;;;31.48;20.24
32237;BME280;18726;44.732;10.550;2023-12-22T08:51:29;99803.72;;;31.11;21.42
32237;BME280;18726;44.732;10.550;2023-12-22T08:54:32;99806.25;;;31.03;20.41
32237;BME280;18726;44.732;10.550;2023-12-22T08:57:37;99822.47;;;32.28;19.81
32237;BME280;18726;44.732;10.550;2023-12-22T09:00:41;99836.78;;;32.18;19.82
32237;BME280;18726;44.732;10.550;2023-12-22T09:03:44;99827.50;;;32.46;19.18
32237;BME280;18726;44.732;10.550;2023-12-22T09:06:50;99840.63;;;32.15;19.54
32237;BME280;18726;44.732;10.550;2023-12-22T09:09:54;99847.03;;;32.21;19.65
32237;BME280;18726;44.732;10.550;2023-12-22T09:12:57;99853.38;;;32.91;19.41
32237;BME280;18726;44.732;10.550;2023-12-22T09:16:01;99860.38;;;31.82;19.29
32237;BME280;18726;44.732;10.550;2023-12-22T09:19:08;99873.25;;;32.41;19.40
32237;BME280;18726;44.732;10.550;2023-12-22T09:22:11;99892.28;;;33.28;19.07
32237;BME280;18726;44.732;10.550;2023-12-22T09:25:15;99861.31;;;33.22;19.66
32237;BME280;18726;44.732;10.550;2023-12-22T09:28:19;99890.19;;;33.94;19.24
32237;BME280;18726;44.732;10.550;2023-12-22T09:31:23;99900.63;;;34.67;18.96
32237;BME280;18726;44.732;10.550;2023-12-22T09:34:26;99879.50;;;34.11;19.34
32237;BME280;18726;44.732;10.550;2023-12-22T09:37:33;99887.88;;;34.41;18.83
32237;BME280;18726;44.732;10.550;2023-12-22T09:40:36;99888.19;;;35.50;17.91
32237;BME280;18726;44.732;10.550;2023-12-22T09:43:42;99896.84;;;35.52;17.82
32237;BME280;18726;44.732;10.550;2023-12-22T09:46:50;99881.09;;;35.25;17.90
32237;BME280;18726;44.732;10.550;2023-12-22T09:49:54;99890.66;;;35.22;17.49
32237;BME280;18726;44.732;10.550;2023-12-22T09:52:58;99879.03;;;36.16;17.20
32237;BME280;18726;44.732;10.550;2023-12-22T09:56:03;99885.19;;;36.67;16.96
32237;BME280;18726;44.732;10.550;2023-12-22T09:59:11;99883.50;;;36.51;17.46
32237;BME280;18726;44.732;10.550;2023-12-22T10:02:16;99885.78;;;36.52;16.83
32237;BME280;18726;44.732;10.550;2023-12-22T10:05:19;99858.69;;;36.17;16.96
32237;BME280;18726;44.732;10.550;2023-12-22T10:08:26;99872.69;;;35.70;17.69
32237;BME280;18726;44.732;10.550;2023-12-22T10:11:29;99868.13;;;37.07;16.96
32237;BME280;18726;44.732;10.550;2023-12-22T10:14:36;99873.19;;;36.27;17.63
32237;BME280;18726;44.732;10.550;2023-12-22T10:17:41;99858.31;;;35.68;18.52
32237;BME280;18726;44.732;10.550;2023-12-22T10:20:45;99864.16;;;36.02;16.75
32237;BME280;18726;44.732;10.550;2023-12-22T10:23:49;99855.88;;;35.78;17.64
32237;BME280;18726;44.732;10.550;2023-12-22T10:26:53;99852.06;;;34.12;18.79
32237;BME280;18726;44.732;10.550;2023-12-22T10:29:57;99858.28;;;35.23;17.86
32237;BME280;18726;44.732;10.550;2023-12-22T10:33:03;99848.97;;;35.73;17.52
32237;BME280;18726;44.732;10.550;2023-12-22T10:36:07;99829.06;;;33.53;18.57
32237;BME280;18726;44.732;10.550;2023-12-22T10:39:11;99821.31;;;33.00;19.65
32237;BME280;18726;44.732;10.550;2023-12-22T10:42:15;99808.47;;;33.04;19.57
32237;BME280;18726;44.732;10.550;2023-12-22T10:45:19;99831.72;;;32.69;20.10
32237;BME280;18726;44.732;10.550;2023-12-22T10:48:23;99831.13;;;32.87;19.42
32237;BME280;18726;44.732;10.550;2023-12-22T10:51:26;99825.91;;;31.65;19.83
32237;BME280;18726;44.732;10.550;2023-12-22T10:54:30;99819.53;;;33.32;19.73
32237;BME280;18726;44.732;10.550;2023-12-22T10:57:34;99824.09;;;34.14;18.70
32237;BME280;18726;44.732;10.550;2023-12-22T11:00:45;99820.06;;;31.40;20.72
32237;BME280;18726;44.732;10.550;2023-12-22T11:03:51;99823.75;;;32.15;21.00
32237;BME280;18726;44.732;10.550;2023-12-22T11:06:57;99811.44;;;30.29;22.85
32237;BME280;18726;44.732;10.550;2023-12-22T11:10:06;99813.47;;;28.45;23.06
32237;BME280;18726;44.732;10.550;2023-12-22T11:13:12;99799.16;;;27.62;24.30
32237;BME280;18726;44.732;10.550;2023-12-22T11:16:17;99799.53;;;27.54;24.93
32237;BME280;18726;44.732;10.550;2023-12-22T11:19:23;99797.50;;;27.70;25.51
32237;BME280;18726;44.732;10.550;2023-12-22T11:22:28;99799.72;;;27.51;25.75
32237;BME280;18726;44.732;10.550;2023-12-22T11:25:34;99776.19;;;26.93;25.52
32237;BME280;18726;44.732;10.550;2023-12-22T11:28:40;99784.94;;;26.71;25.54
32237;BME280;18726;44.732;10.550;2023-12-22T11:31:47;99771.38;;;26.49;26.23
32237;BME280;18726;44.732;10.550;2023-12-22T11:34:53;99762.84;;;26.53;26.46
32237;BME280;18726;44.732;10.550;2023-12-22T11:38:00;99768.31;;;26.23;26.00
32237;BME280;18726;44.732;10.550;2023-12-22T11:41:05;99775.97;;;26.29;27.29
32237;BME280;18726;44.732;10.550;2023-12-22T11:44:11;99775.78;;;26.17;26.05
32237;BME280;18726;44.732;10.550;2023-12-22T11:47:14;99780.63;;;25.84;26.92
32237;BME280;18726;44.732;10.550;2023-12-22T11:50:29;99767.78;;;25.20;28.14
32237;BME280;18726;44.732;10.550;2023-12-22T11:53:36;99777.25;;;24.86;28.54
32237;BME280;18726;44.732;10.550;2023-12-22T11:56:40;99767.13;;;24.47;27.41
32237;BME280;18726;44.732;10.550;2023-12-22T11:59:44;99758.59;;;23.96;28.75
32237;BME280;18726;44.732;10.550;2023-12-22T12:02:54;99771.75;;;24.41;28.52
32237;BME280;18726;44.732;10.550;2023-12-22T12:09:45;99758.97;;;24.43;29.58
32237;BME280;18726;44.732;10.550;2023-12-22T12:13:14;99765.59;;;24.37;28.73
32237;BME280;18726;44.732;10.550;2023-12-22T12:16:20;99755.22;;;24.10;29.04
32237;BME280;18726;44.732;10.550;2023-12-22T12:19:28;99736.53;;;23.83;29.53
32237;BME280;18726;44.732;10.550;2023-12-22T12:22:32;99760.75;;;23.92;29.66
32237;BME280;18726;44.732;10.550;2023-12-22T12:25:37;99746.72;;;24.04;29.58
32237;BME280;18726;44.732;10.550;2023-12-22T12:28:45;99741.75;;;23.72;29.37
32237;BME280;18726;44.732;10.550;2023-12-22T12:31:50;99739.50;;;23.48;30.87
32237;BME280;18726;44.732;10.550;2023-12-22T12:34:54;99740.22;;;23.31;30.13
32237;BME280;18726;44.732;10.550;2023-12-22T12:37:59;99750.75;;;23.14;30.27
32237;BME280;18726;44.732;10.550;2023-12-22T12:41:04;99749.91;;;23.26;30.54
32237;BME280;18726;44.732;10.550;2023-12-22T12:44:11;99768.00;;;23.09;30.25
32237;BME280;18726;44.732;10.550;2023-12-22T12:47:15;99772.63;;;22.81;30.29
32237;BME280;18726;44.732;10.550;2023-12-22T12:50:22;99760.91;;;22.64;32.30
32237;BME280;18726;44.732;10.550;2023-12-22T12:53:36;99771.91;;;22.55;30.19
32237;BME280;18726;44.732;10.550;2023-12-22T12:56:42;99773.28;;;22.72;31.02
32237;BME280;18726;44.732;10.550;2023-12-22T12:59:51;99765.78;;;22.16;31.15
32237;BME280;18726;44.732;10.550;2023-12-22T13:02:55;99761.56;;;22.68;31.23
32237;BME280;18726;44.732;10.550;2023-12-22T13:06:08;99767.22;;;22.43;31.35
32237;BME280;18726;44.732;10.550;2023-12-22T13:09:13;99771.44;;;22.13;31.98
32237;BME280;18726;44.732;10.550;2023-12-22T13:12:17;99763.63;;;22.55;31.40
32237;BME280;18726;44.732;10.550;2023-12-22T13:15:21;99754.41;;;22.02;30.89
32237;BME280;18726;44.732;10.550;2023-12-22T13:18:25;99745.69;;;21.90;32.16
32237;BME280;18726;44.732;10.550;2023-12-22T13:21:29;99758.47;;;21.97;31.64
32237;BME280;18726;44.732;10.550;2023-12-22T13:24:33;99755.31;;;21.86;31.35
32237;BME280;18726;44.732;10.550;2023-12-22T13:27:50;99739.53;;;21.74;31.42
32237;BME280;18726;44.732;10.550;2023-12-22T13:30:54;99750.31;;;22.06;31.80
32237;BME280;18726;44.732;10.550;2023-12-22T13:33:59;99748.81;;;21.80;31.25
32237;BME280;18726;44.732;10.550;2023-12-22T13:37:04;99763.22;;;21.62;31.01
32237;BME280;18726;44.732;10.550;2023-12-22T13:40:08;99768.59;;;21.66;31.78
32237;BME280;18726;44.732;10.550;2023-12-22T13:43:13;99772.31;;;21.97;31.39
32237;BME280;18726;44.732;10.550;2023-12-22T13:46:16;99763.63;;;21.86;31.62
32237;BME280;18726;44.732;10.550;2023-12-22T13:49:20;99760.28;;;21.91;31.89
32237;BME280;18726;44.732;10.550;2023-12-22T13:52:28;99755.56;;;21.79;31.08
32237;BME280;18726;44.732;10.550;2023-12-22T13:55:32;99746.25;;;21.85;31.57
32237;BME280;18726;44.732;10.550;2023-12-22T13:58:47;99757.19;;;21.89;31.86
32237;BME280;18726;44.732;10.550;2023-12-22T14:01:50;99752.06;;;22.00;31.37
32237;BME280;18726;44.732;10.550;2023-12-22T14:04:54;99763.50;;;21.77;31.04
32237;BME280;18726;44.732;10.550;2023-12-22T14:07:57;99753.91;;;21.69;31.38
32237;BME280;18726;44.732;10.550;2023-12-22T14:11:01;99745.63;;;21.56;32.87
32237;BME280;18726;44.732;10.550;2023-12-22T14:14:05;99744.81;;;21.81;32.15
32237;BME280;18726;44.732;10.550;2023-12-22T14:17:09;99747.06;;;21.61;31.94
32237;BME280;18726;44.732;10.550;2023-12-22T14:20:13;99744.63;;;21.63;32.53
32237;BME280;18726;44.732;10.550;2023-12-22T14:23:17;99743.53;;;21.47;33.19
32237;BME280;18726;44.732;10.550;2023-12-22T14:26:21;99727.53;;;21.30;34.19
32237;BME280;18726;44.732;10.550;2023-12-22T14:29:25;99721.97;;;21.17;32.38
32237;BME280;18726;44.732;10.550;2023-12-22T14:32:29;99730.38;;;21.39;32.24
32237;BME280;18726;44.732;10.550;2023-12-22T14:35:33;99733.66;;;21.08;32.59
32237;BME280;18726;44.732;10.550;2023-12-22T14:38:36;99730.13;;;21.08;32.67
32237;BME280;18726;44.732;10.550;2023-12-22T14:41:40;99724.06;;;21.13;32.77
32237;BME280;18726;44.732;10.550;2023-12-22T14:44:45;99725.28;;;20.99;32.74
32237;BME280;18726;44.732;10.550;2023-12-22T14:47:49;99734.75;;;20.73;32.98
32237;BME280;18726;44.732;10.550;2023-12-22T14:50:52;99731.47;;;20.49;33.30
32237;BME280;18726;44.732;10.550;2023-12-22T14:53:56;99726.13;;;20.71;33.79
32237;BME280;18726;44.732;10.550;2023-12-22T14:56:59;99724.59;;;20.41;33.80
32237;BME280;18726;44.732;10.550;2023-12-22T15:00:04;99724.19;;;20.26;34.51
32237;BME280;18726;44.732;10.550;2023-12-22T15:03:09;99708.66;;;20.32;34.85
32237;BME280;18726;44.732;10.550;2023-12-22T15:06:13;99711.69;;;20.38;34.35
32237;BME280;18726;44.732;10.550;2023-12-22T15:09:16;99712.75;;;20.11;34.44
32237;BME280;18726;44.732;10.550;2023-12-22T15:12:20;99718.03;;;20.06;34.39
32237;BME280;18726;44.732;10.550;2023-12-22T15:15:24;99714.00;;;19.94;34.93
32237;BME280;18726;44.732;10.550;2023-12-22T15:18:28;99713.78;;;19.72;34.65
32237;BME280;18726;44.732;10.550;2023-12-22T15:21:31;99724.03;;;19.72;35.14
32237;BME280;18726;44.732;10.550;2023-12-22T15:24:36;99719.72;;;19.87;34.87
32237;BME280;18726;44.732;10.550;2023-12-22T15:27:40;99720.00;;;19.60;35.19
32237;BME280;18726;44.732;10.550;2023-12-22T15:30:43;99721.53;;;19.61;35.15
32237;BME280;18726;44.732;10.550;2023-12-22T15:33:47;99724.19;;;19.65;34.77
32237;BME280;18726;44.732;10.550;2023-12-22T15:36:51;99712.66;;;19.53;35.33
32237;BME280;18726;44.732;10.550;2023-12-22T15:39:54;99711.34;;;19.42;34.57
32237;BME280;18726;44.732;10.550;2023-12-22T15:42:58;99715.22;;;19.44;36.28
32237;BME280;18726;44.732;10.550;2023-12-22T15:46:08;99709.69;;;19.44;34.39
32237;BME280;18726;44.732;10.550;2023-12-22T15:49:13;99717.19;;;19.44;35.50
32237;BME280;18726;44.732;10.550;2023-12-22T15:52:16;99718.66;;;19.32;34.54
32237;BME280;18726;44.732;10.550;2023-12-22T15:55:20;99717.66;;;19.06;35.43
32237;BME280;18726;44.732;10.550;2023-12-22T15:58:24;99718.16;;;18.65;35.20
32237;BME280;18726;44.732;10.550;2023-12-22T16:01:27;99712.28;;;18.83;35.37
32237;BME280;18726;44.732;10.550;2023-12-22T16:04:31;99717.28;;;18.88;35.44
32237;BME280;18726;44.732;10.550;2023-12-22T16:07:35;99710.78;;;18.98;34.68
32237;BME280;18726;44.732;10.550;2023-12-22T16:10:38;99704.59;;;18.54;35.54
32237;BME280;18726;44.732;10.550;2023-12-22T16:13:43;99714.09;;;18.50;35.56